Weather at Ciudad Real International Airport

Public forecast

Using degrees Celsius for public forecast. Weather courtesy of forecast.io.

Current aviation weather report (METAR) for Ciudad Real International Airport

Report is more than 6 hours old.

2024/06/14 11:30 (retrieved 2 days ago)

LERL 141130Z 23006KT 150V290 CAVOK 29/05 Q1017

Closest aviation forecast (TAF) to Ciudad Real International Airport

Forecast is more than 12 hours old.

Closest forecast is Armilla Air Base, 104.7 nm (193.8 km) S.

2024/06/14 12:27 (retrieved 2 days ago)

TAF LEGA 141100Z 1412/1512 18008KT CAVOK TX35/1415Z TN15/1505Z